Time;durP1;ratioP1;P1;durP2;ratioP2;P2;SDS_P1;SDS_P2;PMS_P1;PMS_P2;Temp;Humidity;BMP_temperature;BMP_pressure;BME280_temperature;BME280_humidity;BME280_pressure;Samples;Min_cycle;Max_cycle;Signal;HPM_P1;HPM_P2
2023/09/03 00:01:08;;;;;;;2.70;2.30;;;;;;;;;;5031135;28;20630;-81
2023/09/03 00:03:35;;;;;;;2.75;2.05;;;;;;;;;;5029695;28;20260;-81
2023/09/03 00:06:03;;;;;;;3.53;1.83;;;;;;;;;;5011527;28;20230;-81
2023/09/03 00:08:30;;;;;;;2.47;2.28;;;;;;;;;;5028157;28;20378;-81
2023/09/03 00:10:59;;;;;;;2.00;1.80;;;;;;;;;;5027119;28;20230;-81
2023/09/03 00:13:26;;;;;;;2.03;1.92;;;;;;;;;;5020037;28;20207;-81
2023/09/03 00:15:53;;;;;;;2.78;2.40;;;;;;;;;;5022700;28;20231;-82
2023/09/03 00:18:20;;;;;;;5.07;2.20;;;;;;;;;;5031604;28;20230;-81
2023/09/03 00:20:56;;;;;;;4.40;2.00;;;;;;;;;;5030496;28;20234;-81
2023/09/03 00:23:24;;;;;;;3.78;1.92;;;;;;;;;;5031687;28;20207;-81
2023/09/03 00:25:51;;;;;;;2.67;2.00;;;;;;;;;;5028063;28;20231;-81
2023/09/03 00:28:19;;;;;;;5.18;2.10;;;;;;;;;;5026485;28;20222;-82
2023/09/03 00:30:47;;;;;;;3.50;2.20;;;;;;;;;;5030582;28;20234;-82
2023/09/03 00:33:15;;;;;;;3.20;2.05;;;;;;;;;;5031390;28;20302;-81
2023/09/03 00:35:45;;;;;;;3.25;2.20;;;;;;;;;;5030583;28;20234;-81
2023/09/03 00:38:12;;;;;;;4.82;2.35;;;;;;;;;;5025514;28;20245;-82
2023/09/03 00:40:39;;;;;;;2.33;2.13;;;;;;;;;;5028347;28;20246;-80
2023/09/03 00:43:07;;;;;;;2.30;2.10;;;;;;;;;;5031347;28;20211;-81
2023/09/03 00:45:35;;;;;;;2.10;2.00;;;;;;;;;;5022532;28;20237;-81
2023/09/03 00:48:02;;;;;;;4.03;2.55;;;;;;;;;;5027195;28;20245;-81
2023/09/03 00:50:31;;;;;;;5.53;2.33;;;;;;;;;;5026851;28;20710;-81
2023/09/03 00:52:58;;;;;;;3.42;2.35;;;;;;;;;;5015156;28;20221;-81
2023/09/03 00:55:25;;;;;;;4.43;2.50;;;;;;;;;;5030844;28;20241;-81
2023/09/03 00:57:52;;;;;;;2.70;2.40;;;;;;;;;;5029674;28;20211;-80
2023/09/03 01:00:19;;;;;;;2.50;2.20;;;;;;;;;;5030505;28;20226;-80
2023/09/03 01:02:48;;;;;;;2.40;2.20;;;;;;;;;;5034185;28;20211;-80
2023/09/03 01:05:15;;;;;;;6.03;2.65;;;;;;;;;;5030530;28;20233;-81
2023/09/03 01:07:43;;;;;;;2.63;2.42;;;;;;;;;;5019605;28;20728;-81
2023/09/03 01:10:10;;;;;;;2.72;2.53;;;;;;;;;;5030433;28;20234;-80
2023/09/03 01:12:39;;;;;;;2.80;2.50;;;;;;;;;;5022467;28;20704;-81
2023/09/03 01:15:08;;;;;;;2.80;2.60;;;;;;;;;;5017788;28;20214;-81
2023/09/03 01:17:38;;;;;;;3.60;2.53;;;;;;;;;;5019805;28;20226;-80
2023/09/03 01:20:11;;;;;;;3.25;2.58;;;;;;;;;;5026129;28;20207;-80
2023/09/03 01:22:43;;;;;;;2.35;2.10;;;;;;;;;;5014078;28;20211;-80
2023/09/03 01:25:20;;;;;;;2.47;2.28;;;;;;;;;;5024118;28;20238;-80
2023/09/03 01:27:51;;;;;;;5.57;2.70;;;;;;;;;;5014226;28;20238;-81
2023/09/03 01:30:20;;;;;;;2.60;2.40;;;;;;;;;;5030293;28;20596;-80
2023/09/03 01:32:49;;;;;;;5.73;3.03;;;;;;;;;;5033078;28;20290;-81
2023/09/03 01:35:17;;;;;;;4.75;2.58;;;;;;;;;;5033788;28;20241;-81
2023/09/03 01:37:45;;;;;;;3.37;2.40;;;;;;;;;;5016011;28;20223;-81
2023/09/03 01:40:12;;;;;;;3.47;2.33;;;;;;;;;;5019604;28;20308;-83
2023/09/03 01:42:39;;;;;;;2.40;2.20;;;;;;;;;;5025852;28;20223;-83
2023/09/03 01:45:07;;;;;;;3.80;2.42;;;;;;;;;;5033422;28;20206;-83
2023/09/03 01:47:41;;;;;;;2.80;2.60;;;;;;;;;;5033823;28;20897;-82
2023/09/03 01:50:17;;;;;;;3.60;2.97;;;;;;;;;;5026319;28;20707;-83
2023/09/03 01:52:47;;;;;;;3.27;2.37;;;;;;;;;;5032884;28;20213;-83
2023/09/03 01:55:15;;;;;;;3.27;2.10;;;;;;;;;;5029341;28;20285;-83
2023/09/03 01:57:46;;;;;;;5.55;2.38;;;;;;;;;;5033427;28;20237;-83
2023/09/03 02:00:14;;;;;;;2.20;2.00;;;;;;;;;;5033306;28;20692;-83
2023/09/03 02:02:43;;;;;;;2.25;2.08;;;;;;;;;;5033247;28;20211;-82
2023/09/03 02:05:10;;;;;;;2.47;1.90;;;;;;;;;;5027121;28;20238;-83
2023/09/03 02:07:37;;;;;;;4.57;2.00;;;;;;;;;;5022007;28;20215;-83
2023/09/03 02:10:04;;;;;;;1.77;1.67;;;;;;;;;;5020984;28;20211;-83
2023/09/03 02:12:31;;;;;;;2.75;1.50;;;;;;;;;;5013724;28;20211;-84
2023/09/03 02:14:58;;;;;;;2.67;1.87;;;;;;;;;;5019162;28;20773;-83
2023/09/03 02:17:26;;;;;;;6.07;3.23;;;;;;;;;;5033331;28;20203;-83
2023/09/03 02:19:55;;;;;;;7.83;2.10;;;;;;;;;;5030576;28;20227;-83
2023/09/03 02:22:22;;;;;;;2.42;1.92;;;;;;;;;;5028025;28;20218;-83
2023/09/03 02:24:49;;;;;;;1.93;1.80;;;;;;;;;;5032738;28;20203;-83
2023/09/03 02:27:16;;;;;;;3.47;2.10;;;;;;;;;;5028863;28;20604;-83
2023/09/03 02:29:43;;;;;;;2.30;2.10;;;;;;;;;;5013540;28;20887;-83
2023/09/03 02:32:10;;;;;;;3.03;2.40;;;;;;;;;;5025319;28;20226;-83
2023/09/03 02:34:37;;;;;;;5.00;2.50;;;;;;;;;;5017100;28;20825;-82
2023/09/03 02:37:06;;;;;;;5.60;2.23;;;;;;;;;;5025304;28;20309;-83
2023/09/03 02:39:33;;;;;;;3.97;1.90;;;;;;;;;;5033593;28;20237;-83
2023/09/03 02:42:01;;;;;;;3.93;2.20;;;;;;;;;;5035449;28;20234;-83
2023/09/03 02:44:28;;;;;;;2.40;2.20;;;;;;;;;;5019921;28;20609;-83
2023/09/03 02:46:55;;;;;;;2.33;2.10;;;;;;;;;;5013937;28;20231;-83
2023/09/03 02:49:23;;;;;;;5.23;2.77;;;;;;;;;;5021560;28;20227;-83
2023/09/03 02:51:50;;;;;;;2.50;2.30;;;;;;;;;;5029243;28;20231;-83
2023/09/03 02:54:19;;;;;;;4.60;2.67;;;;;;;;;;5013775;28;20211;-83
2023/09/03 02:56:47;;;;;;;6.10;2.80;;;;;;;;;;5022116;28;20248;-83
2023/09/03 02:59:14;;;;;;;5.53;3.10;;;;;;;;;;5032915;28;20246;-83
2023/09/03 03:01:42;;;;;;;7.23;3.30;;;;;;;;;;5023962;28;20235;-83
2023/09/03 03:04:09;;;;;;;8.03;4.00;;;;;;;;;;5020609;28;20203;-83
2023/09/03 03:06:36;;;;;;;6.13;4.00;;;;;;;;;;5028450;28;20727;-83
2023/09/03 03:09:04;;;;;;;7.83;4.40;;;;;;;;;;5032363;28;20574;-83
2023/09/03 03:11:33;;;;;;;5.87;3.60;;;;;;;;;;5032080;28;20700;-83
2023/09/03 03:14:00;;;;;;;8.10;3.67;;;;;;;;;;5032600;28;20214;-83
2023/09/03 03:16:27;;;;;;;5.20;3.37;;;;;;;;;;5032032;28;20233;-83
2023/09/03 03:18:54;;;;;;;4.47;2.90;;;;;;;;;;5032461;28;20237;-83
2023/09/03 03:21:22;;;;;;;4.07;3.33;;;;;;;;;;5031841;28;20241;-82
2023/09/03 03:23:50;;;;;;;5.40;2.70;;;;;;;;;;5016518;28;20211;-83
2023/09/03 03:26:18;;;;;;;6.77;2.70;;;;;;;;;;5033348;28;20234;-83
2023/09/03 03:28:47;;;;;;;6.13;2.67;;;;;;;;;;5039828;28;20294;-83
2023/09/03 03:31:15;;;;;;;3.50;2.77;;;;;;;;;;5026961;28;20226;-83
2023/09/03 03:33:42;;;;;;;4.30;3.43;;;;;;;;;;5016112;28;20265;-83
2023/09/03 03:36:12;;;;;;;3.80;3.00;;;;;;;;;;5012408;28;20227;-83
2023/09/03 03:38:39;;;;;;;5.07;3.00;;;;;;;;;;5012444;28;20243;-83
2023/09/03 03:41:09;;;;;;;2.70;2.50;;;;;;;;;;5011936;28;20228;-83
2023/09/03 03:43:37;;;;;;;6.77;3.77;;;;;;;;;;5020758;28;20211;-82
2023/09/03 03:46:06;;;;;;;7.00;3.60;;;;;;;;;;5023243;28;20230;-83
2023/09/03 03:48:33;;;;;;;4.80;3.97;;;;;;;;;;5023866;28;20248;-82
2023/09/03 03:51:00;;;;;;;6.17;3.47;;;;;;;;;;5022972;28;20247;-82
2023/09/03 03:53:27;;;;;;;7.30;3.50;;;;;;;;;;5031223;28;20214;-82
2023/09/03 03:56:00;;;;;;;5.70;3.60;;;;;;;;;;5013082;28;20257;-82
2023/09/03 03:58:29;;;;;;;7.50;4.13;;;;;;;;;;5026370;28;20231;-83
2023/09/03 04:00:56;;;;;;;4.50;3.60;;;;;;;;;;5031108;28;20235;-83
2023/09/03 04:03:27;;;;;;;5.27;3.73;;;;;;;;;;5031506;28;20664;-83
2023/09/03 04:05:56;;;;;;;4.10;3.70;;;;;;;;;;5030935;28;20284;-82
2023/09/03 04:08:24;;;;;;;7.90;3.97;;;;;;;;;;5026063;28;20229;-83
2023/09/03 04:10:56;;;;;;;6.30;4.13;;;;;;;;;;5030547;28;20234;-83
2023/09/03 04:13:23;;;;;;;6.37;3.63;;;;;;;;;;5032171;28;20555;-83
2023/09/03 04:15:50;;;;;;;6.47;4.10;;;;;;;;;;5031056;28;20253;-83
2023/09/03 04:18:17;;;;;;;3.83;3.40;;;;;;;;;;5031489;28;20704;-83
2023/09/03 04:20:46;;;;;;;6.87;3.40;;;;;;;;;;5022622;28;20234;-83
2023/09/03 04:23:13;;;;;;;6.83;3.60;;;;;;;;;;5031533;28;20669;-82
2023/09/03 04:25:40;;;;;;;6.23;3.40;;;;;;;;;;5031158;28;20245;-83
2023/09/03 04:28:07;;;;;;;3.27;2.97;;;;;;;;;;5031438;28;20233;-83
2023/09/03 04:30:35;;;;;;;4.77;3.20;;;;;;;;;;5030479;28;20234;-83
2023/09/03 04:33:02;;;;;;;3.47;2.90;;;;;;;;;;5031340;28;20214;-82
2023/09/03 04:35:29;;;;;;;5.20;3.50;;;;;;;;;;5016719;28;20231;-83
2023/09/03 04:37:58;;;;;;;8.97;3.80;;;;;;;;;;5021252;28;20748;-83
2023/09/03 04:40:25;;;;;;;5.67;3.53;;;;;;;;;;5023465;28;20245;-82
2023/09/03 04:42:52;;;;;;;7.57;3.70;;;;;;;;;;5031222;28;20453;-82
2023/09/03 04:45:19;;;;;;;4.10;3.70;;;;;;;;;;5036865;28;20236;-83
2023/09/03 04:47:46;;;;;;;8.17;4.93;;;;;;;;;;5026023;28;20215;-83
2023/09/03 04:50:13;;;;;;;4.03;3.53;;;;;;;;;;5011177;28;20235;-83
2023/09/03 04:52:44;;;;;;;5.13;4.20;;;;;;;;;;5019029;28;20590;-82
2023/09/03 04:55:13;;;;;;;9.10;3.97;;;;;;;;;;5031302;28;20300;-83
2023/09/03 04:57:40;;;;;;;5.67;4.20;;;;;;;;;;5028158;28;20218;-83
2023/09/03 05:00:07;;;;;;;4.83;4.00;;;;;;;;;;5030534;28;20234;-82
2023/09/03 05:02:34;;;;;;;4.80;4.03;;;;;;;;;;5027955;28;20221;-82
2023/09/03 05:05:01;;;;;;;4.93;3.53;;;;;;;;;;5028815;28;20218;-82
2023/09/03 05:07:30;;;;;;;5.33;3.57;;;;;;;;;;5028086;28;20207;-82
2023/09/03 05:09:57;;;;;;;3.97;3.47;;;;;;;;;;5043309;28;20239;-83
2023/09/03 05:12:26;;;;;;;8.87;3.90;;;;;;;;;;5035426;28;20577;-83
2023/09/03 05:14:53;;;;;;;4.03;3.60;;;;;;;;;;5034132;28;20211;-82
2023/09/03 05:17:20;;;;;;;5.10;3.77;;;;;;;;;;5035181;28;20207;-82
2023/09/03 05:19:48;;;;;;;4.57;3.67;;;;;;;;;;5026083;28;20321;-82
2023/09/03 05:22:15;;;;;;;7.50;4.13;;;;;;;;;;5031004;28;20217;-82
2023/09/03 05:24:42;;;;;;;5.93;3.60;;;;;;;;;;5017255;28;20215;-82
2023/09/03 05:27:09;;;;;;;9.00;4.13;;;;;;;;;;5017651;28;20226;-82
2023/09/03 05:29:37;;;;;;;7.07;3.67;;;;;;;;;;5034012;28;20696;-82
2023/09/03 05:32:05;;;;;;;7.80;3.73;;;;;;;;;;5026049;28;20238;-82
2023/09/03 05:34:32;;;;;;;8.07;4.57;;;;;;;;;;5034956;28;20211;-83
2023/09/03 05:36:59;;;;;;;5.57;3.77;;;;;;;;;;5034229;28;20609;-82
2023/09/03 05:39:26;;;;;;;8.53;4.93;;;;;;;;;;5031738;28;20600;-83
2023/09/03 05:41:53;;;;;;;7.13;3.73;;;;;;;;;;5016713;28;20265;-82
2023/09/03 05:44:20;;;;;;;5.87;4.00;;;;;;;;;;5033838;28;20207;-82
2023/09/03 05:46:49;;;;;;;4.50;3.87;;;;;;;;;;5017781;28;20231;-83
2023/09/03 05:49:16;;;;;;;6.00;4.03;;;;;;;;;;5014606;28;20223;-83
2023/09/03 05:51:43;;;;;;;7.80;4.40;;;;;;;;;;5032426;28;20600;-82
2023/09/03 05:54:10;;;;;;;4.50;4.07;;;;;;;;;;5014921;28;20691;-84
2023/09/03 05:56:37;;;;;;;9.90;4.53;;;;;;;;;;5020482;28;20252;-83
2023/09/03 05:59:05;;;;;;;11.67;5.60;;;;;;;;;;5028935;28;20227;-83
2023/09/03 06:01:32;;;;;;;11.40;4.90;;;;;;;;;;5023261;28;20231;-83
2023/09/03 06:04:04;;;;;;;10.73;4.50;;;;;;;;;;5024551;28;20683;-83
2023/09/03 06:06:36;;;;;;;8.77;5.60;;;;;;;;;;5031745;28;20230;-82
2023/09/03 06:09:03;;;;;;;9.20;4.70;;;;;;;;;;5032162;28;20226;-83
2023/09/03 06:11:30;;;;;;;6.97;4.43;;;;;;;;;;5029496;28;20771;-83
2023/09/03 06:13:57;;;;;;;9.63;4.93;;;;;;;;;;5019765;28;20211;-83
2023/09/03 06:16:25;;;;;;;7.97;4.70;;;;;;;;;;5033890;28;20238;-83
2023/09/03 06:18:52;;;;;;;7.50;4.47;;;;;;;;;;5033852;28;20236;-83
2023/09/03 06:21:21;;;;;;;6.17;4.87;;;;;;;;;;5037179;28;20228;-85
2023/09/03 06:23:48;;;;;;;7.80;5.00;;;;;;;;;;5045654;28;20209;-83
2023/09/03 06:26:15;;;;;;;8.43;5.47;;;;;;;;;;5021919;28;20223;-83
2023/09/03 06:28:42;;;;;;;6.30;5.50;;;;;;;;;;5018989;28;20234;-83
2023/09/03 06:31:09;;;;;;;8.17;5.20;;;;;;;;;;5033451;28;20249;-83
2023/09/03 06:33:36;;;;;;;5.83;5.23;;;;;;;;;;5029033;28;20211;-83
2023/09/03 06:36:04;;;;;;;6.73;6.03;;;;;;;;;;5033371;28;20226;-82
2023/09/03 06:38:33;;;;;;;7.53;6.13;;;;;;;;;;5042401;28;20239;-83
2023/09/03 06:41:00;;;;;;;8.33;5.73;;;;;;;;;;5023812;28;20309;-81
2023/09/03 06:43:27;;;;;;;9.57;6.47;;;;;;;;;;5013855;28;20574;-83
2023/09/03 06:45:54;;;;;;;10.50;6.27;;;;;;;;;;5029968;28;20235;-83
2023/09/03 06:48:21;;;;;;;10.83;6.07;;;;;;;;;;5037689;28;20233;-83
2023/09/03 06:50:50;;;;;;;7.00;6.30;;;;;;;;;;5028958;28;20234;-83
2023/09/03 06:53:17;;;;;;;7.17;6.30;;;;;;;;;;5025897;28;20672;-83
2023/09/03 06:55:45;;;;;;;7.60;6.27;;;;;;;;;;5033608;28;20226;-83
2023/09/03 06:58:13;;;;;;;6.87;6.20;;;;;;;;;;5031257;28;20235;-83
2023/09/03 07:00:40;;;;;;;8.73;5.80;;;;;;;;;;5028208;28;20231;-84
2023/09/03 07:03:07;;;;;;;9.07;6.00;;;;;;;;;;5039714;28;20218;-83
2023/09/03 07:05:34;;;;;;;5.83;5.33;;;;;;;;;;5026992;28;20238;-83
2023/09/03 07:08:01;;;;;;;8.43;6.10;;;;;;;;;;5041172;28;20227;-84
2023/09/03 07:10:28;;;;;;;8.57;6.00;;;;;;;;;;5032816;28;20230;-83
2023/09/03 07:12:56;;;;;;;5.90;5.30;;;;;;;;;;5031703;28;20241;-83
2023/09/03 07:15:25;;;;;;;5.60;5.07;;;;;;;;;;5036187;28;20234;-83
2023/09/03 07:17:52;;;;;;;5.53;5.03;;;;;;;;;;5039025;28;20210;-83
2023/09/03 07:20:19;;;;;;;7.43;5.63;;;;;;;;;;5032675;28;20238;-83
2023/09/03 07:22:46;;;;;;;6.90;5.18;;;;;;;;;;5027104;28;20210;-83
2023/09/03 07:25:13;;;;;;;6.60;5.80;;;;;;;;;;5040606;28;20227;-84
2023/09/03 07:27:41;;;;;;;10.00;5.40;;;;;;;;;;5027023;28;20214;-82
2023/09/03 07:30:10;;;;;;;6.47;5.63;;;;;;;;;;5037173;28;20250;-81
2023/09/03 07:32:37;;;;;;;6.60;5.50;;;;;;;;;;5030635;28;20206;-82
2023/09/03 07:35:05;;;;;;;7.53;5.50;;;;;;;;;;5031101;28;20207;-83
2023/09/03 07:37:32;;;;;;;7.40;5.25;;;;;;;;;;5031618;28;20198;-85
2023/09/03 07:40:00;;;;;;;6.25;5.13;;;;;;;;;;5036000;22;20251;-84
2023/09/03 07:42:27;;;;;;;5.30;4.80;;;;;;;;;;5014187;28;20218;-83
2023/09/03 07:44:54;;;;;;;5.47;4.53;;;;;;;;;;5028548;28;20306;-82
2023/09/03 07:47:22;;;;;;;6.47;4.80;;;;;;;;;;5027137;28;20276;-82
2023/09/03 07:49:50;;;;;;;5.78;5.22;;;;;;;;;;5027231;28;20245;-84
2023/09/03 07:52:17;;;;;;;6.22;5.53;;;;;;;;;;5034540;28;20216;-86
2023/09/03 07:54:44;;;;;;;6.50;5.45;;;;;;;;;;5031902;28;20211;-86
2023/09/03 07:57:12;;;;;;;8.40;5.60;;;;;;;;;;5034187;28;20222;-85
2023/09/03 07:59:39;;;;;;;6.05;5.05;;;;;;;;;;5027571;28;20259;-85
2023/09/03 08:02:06;;;;;;;7.40;5.57;;;;;;;;;;5039368;28;20493;-85
2023/09/03 08:04:35;;;;;;;6.22;5.53;;;;;;;;;;5030930;28;20215;-84
2023/09/03 08:07:03;;;;;;;6.75;5.00;;;;;;;;;;5024787;28;20231;-86
2023/09/03 08:09:30;;;;;;;5.38;4.88;;;;;;;;;;5031339;28;20231;-85
2023/09/03 08:11:57;;;;;;;5.75;5.13;;;;;;;;;;5032555;28;20226;-84
2023/09/03 08:14:24;;;;;;;6.25;4.75;;;;;;;;;;5029414;28;20210;-85
2023/09/03 08:16:51;;;;;;;9.70;6.13;;;;;;;;;;5028601;28;20322;-83
2023/09/03 08:19:18;;;;;;;8.55;5.88;;;;;;;;;;5036370;28;20238;-82
2023/09/03 08:21:47;;;;;;;7.32;5.30;;;;;;;;;;5028373;28;20294;-83
2023/09/03 08:24:15;;;;;;;5.88;5.28;;;;;;;;;;5042710;28;20210;-84
2023/09/03 08:26:42;;;;;;;7.15;6.43;;;;;;;;;;5028730;28;20235;-82
2023/09/03 08:29:09;;;;;;;5.68;5.05;;;;;;;;;;5025152;28;20238;-83
2023/09/03 08:31:36;;;;;;;6.85;5.32;;;;;;;;;;5039109;28;20312;-82
2023/09/03 08:34:03;;;;;;;6.07;5.13;;;;;;;;;;5037789;28;20672;-84
2023/09/03 08:36:30;;;;;;;5.47;4.72;;;;;;;;;;5035140;28;20325;-83
2023/09/03 08:39:00;;;;;;;5.63;4.68;;;;;;;;;;5035087;28;20238;-84
2023/09/03 08:41:28;;;;;;;6.78;4.55;;;;;;;;;;5032230;28;20316;-83
2023/09/03 08:43:56;;;;;;;5.70;4.50;;;;;;;;;;5035293;28;20206;-84
2023/09/03 08:46:25;;;;;;;6.07;4.97;;;;;;;;;;5029884;28;20230;-85
2023/09/03 08:48:54;;;;;;;5.97;5.05;;;;;;;;;;5030352;28;20286;-84
2023/09/03 08:51:21;;;;;;;5.95;4.93;;;;;;;;;;5039304;28;20234;-83
2023/09/03 08:53:50;;;;;;;5.32;4.60;;;;;;;;;;5036863;28;20246;-85
2023/09/03 08:56:18;;;;;;;6.40;4.72;;;;;;;;;;5048445;28;20738;-85
2023/09/03 08:58:45;;;;;;;5.10;4.60;;;;;;;;;;5045348;28;20223;-86
2023/09/03 09:01:13;;;;;;;5.05;4.60;;;;;;;;;;5040120;28;20229;-87
2023/09/03 09:03:41;;;;;;;6.07;4.60;;;;;;;;;;5034431;28;20199;-88
2023/09/03 09:06:08;;;;;;;7.40;4.53;;;;;;;;;;5042067;28;20226;-85
2023/09/03 09:08:37;;;;;;;5.25;4.75;;;;;;;;;;5027852;28;20322;-87
2023/09/03 09:11:05;;;;;;;5.20;4.30;;;;;;;;;;5021616;28;20700;-86
2023/09/03 09:13:36;;;;;;;4.78;4.28;;;;;;;;;;5041640;28;20206;-89
2023/09/03 09:16:04;;;;;;;6.68;4.63;;;;;;;;;;5038404;28;20850;-86
2023/09/03 09:18:31;;;;;;;4.55;4.20;;;;;;;;;;5019304;28;20233;-88
2023/09/03 09:21:00;;;;;;;5.95;4.30;;;;;;;;;;5022585;28;20223;-87
2023/09/03 09:23:28;;;;;;;5.28;4.43;;;;;;;;;;5034795;28;20210;-86
2023/09/03 09:25:56;;;;;;;4.88;4.43;;;;;;;;;;5015954;28;20224;-86
2023/09/03 09:28:23;;;;;;;6.03;5.25;;;;;;;;;;4996963;28;20270;-85
2023/09/03 09:30:56;;;;;;;6.15;5.05;;;;;;;;;;4999770;28;20235;-85
2023/09/03 09:33:23;;;;;;;6.47;5.05;;;;;;;;;;4996946;28;20208;-86
2023/09/03 09:35:50;;;;;;;5.30;4.80;;;;;;;;;;4998096;28;20228;-85
2023/09/03 09:38:18;;;;;;;4.80;4.35;;;;;;;;;;4995426;28;20215;-85
2023/09/03 09:40:45;;;;;;;5.60;4.22;;;;;;;;;;4998571;28;20266;-86
2023/09/03 09:43:12;;;;;;;5.68;4.25;;;;;;;;;;5004954;28;20219;-86
2023/09/03 09:45:46;;;;;;;4.68;4.28;;;;;;;;;;5010400;28;20227;-86
2023/09/03 09:48:15;;;;;;;5.20;4.43;;;;;;;;;;4998968;28;20230;-86
2023/09/03 09:50:44;;;;;;;5.22;4.30;;;;;;;;;;4996642;28;20236;-86
2023/09/03 09:53:21;;;;;;;5.90;5.03;;;;;;;;;;4996825;28;20211;-87
2023/09/03 09:55:48;;;;;;;6.22;5.60;;;;;;;;;;5005385;28;20239;-87
2023/09/03 09:58:16;;;;;;;5.70;4.55;;;;;;;;;;4997313;28;20220;-86
2023/09/03 10:00:44;;;;;;;5.53;4.50;;;;;;;;;;5010203;28;20230;-86
2023/09/03 10:03:12;;;;;;;6.28;4.72;;;;;;;;;;5000028;28;20208;-85
2023/09/03 10:05:49;;;;;;;8.88;7.95;;;;;;;;;;5004808;28;20318;-88
2023/09/03 10:08:17;;;;;;;7.72;6.82;;;;;;;;;;4997933;28;20203;-87
2023/09/03 10:10:44;;;;;;;6.13;5.53;;;;;;;;;;4996585;28;20236;-87
2023/09/03 10:13:11;;;;;;;6.68;6.07;;;;;;;;;;5005419;28;20207;-87
2023/09/03 10:15:42;;;;;;;6.40;4.95;;;;;;;;;;5003884;28;20289;-87
2023/09/03 10:18:09;;;;;;;4.90;4.50;;;;;;;;;;4997106;28;20212;-88
2023/09/03 10:20:45;;;;;;;7.47;4.95;;;;;;;;;;4980736;28;20244;-87
2023/09/03 10:23:16;;;;;;;5.72;4.72;;;;;;;;;;4996812;28;20826;-87
2023/09/03 10:25:46;;;;;;;6.30;5.30;;;;;;;;;;4997059;28;20240;-88
2023/09/03 10:28:16;;;;;;;6.60;5.40;;;;;;;;;;4997322;28;20630;-87
2023/09/03 10:30:44;;;;;;;6.63;5.63;;;;;;;;;;4993480;28;20232;-88
2023/09/03 10:33:12;;;;;;;6.63;4.90;;;;;;;;;;4997864;28;20204;-88
2023/09/03 10:35:39;;;;;;;5.15;4.65;;;;;;;;;;5017288;28;20235;-88
2023/09/03 10:38:30;;;;;;;5.40;4.55;;;;;;;;;;5008631;28;20223;-88
2023/09/03 10:41:16;;;;;;;4.70;4.30;;;;;;;;;;5003477;28;20227;-88
2023/09/03 10:43:43;;;;;;;5.03;4.30;;;;;;;;;;5004416;28;20220;-91
2023/09/03 10:46:11;;;;;;;5.68;5.18;;;;;;;;;;5003135;28;20265;-87
2023/09/03 10:48:38;;;;;;;4.75;4.35;;;;;;;;;;5003252;28;20232;-90
2023/09/03 10:51:06;;;;;;;4.70;4.30;;;;;;;;;;5005495;28;20259;-86
2023/09/03 10:53:37;;;;;;;5.25;4.75;;;;;;;;;;4996867;28;20582;-90
2023/09/03 10:56:09;;;;;;;5.47;3.88;;;;;;;;;;5006242;28;20657;-89
2023/09/03 10:58:37;;;;;;;5.15;3.92;;;;;;;;;;5009997;28;20250;-87
2023/09/03 11:01:20;;;;;;;5.15;4.57;;;;;;;;;;5012445;28;20241;-87
2023/09/03 11:03:48;;;;;;;5.22;4.72;;;;;;;;;;5003946;28;20212;-87
2023/09/03 11:06:16;;;;;;;4.47;4.13;;;;;;;;;;4996761;28;20239;-87
2023/09/03 11:08:43;;;;;;;4.35;3.97;;;;;;;;;;4995550;28;20228;-87
2023/09/03 11:11:12;;;;;;;4.95;4.50;;;;;;;;;;4996003;28;20232;-87
2023/09/03 11:13:42;;;;;;;4.25;3.92;;;;;;;;;;4983306;28;20223;-87
2023/09/03 11:16:10;;;;;;;6.10;5.45;;;;;;;;;;4977206;28;20256;-88
2023/09/03 11:18:38;;;;;;;6.35;5.75;;;;;;;;;;4993068;28;20231;-85
2023/09/03 11:21:05;;;;;;;5.22;4.72;;;;;;;;;;4983477;28;20208;-84
2023/09/03 11:23:33;;;;;;;5.22;4.40;;;;;;;;;;4987795;28;20216;-84
2023/09/03 11:26:02;;;;;;;5.38;4.88;;;;;;;;;;4987050;28;20236;-84
2023/09/03 11:28:36;;;;;;;4.22;3.92;;;;;;;;;;4974733;28;20266;-84
2023/09/03 11:31:09;;;;;;;6.03;4.15;;;;;;;;;;4982211;28;20709;-83
2023/09/03 11:33:36;;;;;;;3.47;3.15;;;;;;;;;;4974965;28;20209;-84
2023/09/03 11:36:04;;;;;;;4.00;3.60;;;;;;;;;;4982056;28;20666;-85
2023/09/03 11:38:32;;;;;;;4.40;4.00;;;;;;;;;;4983268;28;20216;-84
2023/09/03 11:40:59;;;;;;;3.67;3.35;;;;;;;;;;4983323;28;20224;-85
2023/09/03 11:43:30;;;;;;;3.50;3.20;;;;;;;;;;4984079;28;20212;-84
2023/09/03 11:46:00;;;;;;;3.72;3.42;;;;;;;;;;4983325;28;20239;-85
2023/09/03 11:48:28;;;;;;;3.95;3.60;;;;;;;;;;4978628;28;20217;-85
2023/09/03 11:50:56;;;;;;;3.63;3.30;;;;;;;;;;4984185;28;20235;-85
2023/09/03 11:53:23;;;;;;;2.67;2.47;;;;;;;;;;4981312;28;20238;-84
2023/09/03 11:55:52;;;;;;;3.22;2.88;;;;;;;;;;4980676;28;20236;-84
2023/09/03 11:58:21;;;;;;;2.50;2.40;;;;;;;;;;4973228;28;20217;-85
2023/09/03 12:00:49;;;;;;;3.83;3.53;;;;;;;;;;4981265;28;20235;-85
2023/09/03 12:03:17;;;;;;;3.65;3.35;;;;;;;;;;4985650;28;20203;-85
2023/09/03 12:05:45;;;;;;;3.97;3.47;;;;;;;;;;4979612;28;20228;-85
2023/09/03 12:08:12;;;;;;;3.13;2.92;;;;;;;;;;4986919;28;20219;-85
2023/09/03 12:10:39;;;;;;;3.13;2.83;;;;;;;;;;4989107;28;20236;-85
2023/09/03 12:13:06;;;;;;;3.67;3.38;;;;;;;;;;4983186;28;20240;-84
2023/09/03 12:15:34;;;;;;;4.45;3.55;;;;;;;;;;4982204;28;20706;-85
2023/09/03 12:18:11;;;;;;;3.88;3.58;;;;;;;;;;4983483;28;20265;-85
2023/09/03 12:20:41;;;;;;;3.97;3.67;;;;;;;;;;4974823;28;20259;-85
2023/09/03 12:23:09;;;;;;;3.55;3.25;;;;;;;;;;4975202;28;20201;-85
2023/09/03 12:25:36;;;;;;;3.50;3.20;;;;;;;;;;4982862;28;20263;-85
2023/09/03 12:28:04;;;;;;;3.35;3.05;;;;;;;;;;4990283;28;20207;-85
2023/09/03 12:30:46;;;;;;;4.78;3.88;;;;;;;;;;4983833;28;20244;-85
2023/09/03 12:33:14;;;;;;;4.10;3.70;;;;;;;;;;4974734;28;20232;-85
2023/09/03 12:35:42;;;;;;;3.67;3.38;;;;;;;;;;4981826;28;20985;-85
2023/09/03 12:38:10;;;;;;;3.88;3.10;;;;;;;;;;4975629;28;20205;-86
2023/09/03 12:40:37;;;;;;;3.33;3.03;;;;;;;;;;4982617;28;20231;-84
2023/09/03 12:43:04;;;;;;;4.07;3.65;;;;;;;;;;4988499;28;20200;-85
2023/09/03 12:45:31;;;;;;;5.30;3.30;;;;;;;;;;4986496;28;20612;-85
2023/09/03 12:47:58;;;;;;;3.72;3.42;;;;;;;;;;4993905;28;20211;-85
2023/09/03 12:50:27;;;;;;;4.07;3.78;;;;;;;;;;4982368;28;20239;-84
2023/09/03 12:52:57;;;;;;;4.43;3.70;;;;;;;;;;4981986;28;20683;-85
2023/09/03 12:55:24;;;;;;;3.53;3.22;;;;;;;;;;4973546;28;20232;-86
2023/09/03 12:57:52;;;;;;;3.20;3.00;;;;;;;;;;4975465;28;20224;-86
2023/09/03 13:00:19;;;;;;;4.03;3.53;;;;;;;;;;4973277;28;20319;-84
2023/09/03 13:02:47;;;;;;;3.75;3.45;;;;;;;;;;4972659;28;20655;-85
2023/09/03 13:05:14;;;;;;;4.40;3.42;;;;;;;;;;4981465;28;20240;-84
2023/09/03 13:07:41;;;;;;;3.45;3.15;;;;;;;;;;4974752;28;20216;-85
2023/09/03 13:10:10;;;;;;;3.38;3.08;;;;;;;;;;4989871;28;20239;-85
2023/09/03 13:12:37;;;;;;;3.40;3.10;;;;;;;;;;4974786;28;20228;-85
2023/09/03 13:15:04;;;;;;;3.60;3.30;;;;;;;;;;4981943;28;20564;-86
2023/09/03 13:17:32;;;;;;;3.47;3.17;;;;;;;;;;4974355;28;20213;-86
2023/09/03 13:19:59;;;;;;;3.83;3.53;;;;;;;;;;4974243;28;20230;-86
2023/09/03 13:22:26;;;;;;;3.47;3.17;;;;;;;;;;4976105;28;20201;-86
2023/09/03 13:24:53;;;;;;;2.90;2.70;;;;;;;;;;4987821;28;20215;-84
2023/09/03 13:27:22;;;;;;;3.20;3.00;;;;;;;;;;4974441;28;20212;-86
2023/09/03 13:29:49;;;;;;;3.17;2.97;;;;;;;;;;4986063;28;20316;-86
2023/09/03 13:32:16;;;;;;;3.40;3.10;;;;;;;;;;4986020;28;20605;-86
2023/09/03 13:34:45;;;;;;;3.28;3.08;;;;;;;;;;4977999;28;20576;-86
2023/09/03 13:37:12;;;;;;;3.38;3.08;;;;;;;;;;4985238;28;20231;-86
2023/09/03 15:29:05;;;;;;;3.00;2.70;;;;;;;;;;4981353;28;20235;-80
2023/09/03 15:31:36;;;;;;;2.97;2.78;;;;;;;;;;4990990;28;20235;-81
2023/09/03 15:34:08;;;;;;;2.55;2.35;;;;;;;;;;4997621;28;20211;-81
2023/09/03 15:36:36;;;;;;;2.80;2.60;;;;;;;;;;4994560;28;20227;-80
2023/09/03 15:39:03;;;;;;;3.00;2.80;;;;;;;;;;4993618;28;20286;-80
2023/09/03 15:41:30;;;;;;;2.83;2.55;;;;;;;;;;4993271;28;20254;-80
2023/09/03 15:44:00;;;;;;;2.55;2.35;;;;;;;;;;4992718;28;20592;-79
2023/09/03 15:46:29;;;;;;;6.00;2.65;;;;;;;;;;4991800;28;20230;-79
2023/09/03 15:48:56;;;;;;;2.90;2.70;;;;;;;;;;4986700;28;20235;-79
2023/09/03 15:51:23;;;;;;;2.45;2.22;;;;;;;;;;4989956;28;20770;-79
2023/09/03 15:53:50;;;;;;;2.88;2.47;;;;;;;;;;4992419;28;20228;-79
2023/09/03 15:56:17;;;;;;;2.50;2.30;;;;;;;;;;4991964;28;20239;-79
2023/09/03 15:58:44;;;;;;;2.67;2.47;;;;;;;;;;4992767;28;20208;-79
2023/09/03 16:01:12;;;;;;;2.67;2.47;;;;;;;;;;4992032;28;20607;-78
2023/09/03 16:03:40;;;;;;;2.67;2.47;;;;;;;;;;4988998;28;20212;-78
2023/09/03 16:06:08;;;;;;;2.25;2.15;;;;;;;;;;4991215;28;20322;-79
2023/09/03 16:08:35;;;;;;;2.65;2.45;;;;;;;;;;4987822;28;20529;-81
2023/09/03 16:11:03;;;;;;;2.42;2.22;;;;;;;;;;4986493;28;20235;-80
2023/09/03 16:13:30;;;;;;;3.20;2.90;;;;;;;;;;4983376;28;20232;-79
2023/09/03 16:15:57;;;;;;;2.42;2.22;;;;;;;;;;4985555;28;20240;-79
2023/09/03 16:18:25;;;;;;;2.60;2.40;;;;;;;;;;4982919;28;20220;-79
2023/09/03 16:20:53;;;;;;;2.75;2.53;;;;;;;;;;4983188;28;20266;-79
2023/09/03 16:23:20;;;;;;;2.50;2.30;;;;;;;;;;4992455;28;20208;-80
2023/09/03 16:25:47;;;;;;;2.97;2.60;;;;;;;;;;4989357;28;20232;-79
2023/09/03 16:28:14;;;;;;;2.58;2.38;;;;;;;;;;4991516;28;20231;-80
2023/09/03 16:30:41;;;;;;;2.60;2.40;;;;;;;;;;4984679;28;20227;-80
2023/09/03 16:33:08;;;;;;;2.30;2.20;;;;;;;;;;4976760;28;20259;-80
2023/09/03 16:35:35;;;;;;;2.58;2.25;;;;;;;;;;4989139;28;20714;-80
2023/09/03 16:38:04;;;;;;;2.47;2.28;;;;;;;;;;4980698;28;20769;-80